Maize, KS

1:35 AM CST on December 25, 2014 (GMT -0600)
Shadow Lakes | Change Station
CLOSE
Current Station
Personal Weather Station
Location: Wichita, KS
Elevation: 1358 ft
Nearby Weather Stations

Elev 1358 ft 37.74 °N, 97.44 °W | Updated 4 minutes ago

Clear
Clear
34.0 °F
Feels Like 27 °F
N
8.9
Wind Variable Wind from South

Today
High -- | Low -- °F
--% Chance of Precip.
Yesterday
High -- | Low -- °F
Precip. -- in
7:43 AM 5:16 PM
Waxing Crescent, 14% visible
Pressure 29.78 in
Visibility 10.0 miles
Clouds Clear
Windchill 27 °F
Dew Point 25 °F
Humidity 70%
Rainfall 0.00 in
Snow Depth Not available.
UV 0 out of 12
Pollen .10 out of 12
Air Quality Not available.
Flu Activity Not available.
METAR KICT 250653Z 19013KT 10SM CLR 01/M04 A2976 RMK AO2 SLP085 T00061044

More Conditions Fewer Conditions

Pressure 29.78 in
Visibility 10.0 miles
Clouds Clear
Windchill 27 °F
Dew Point 25 °F
Humidity 70%
Rainfall 0.00 in
Snow Depth Not available.
UV 0 out of 12
Pollen .10 out of 12
Air Quality Not available.
Flu Activity Not available.
METAR KICT 250653Z 19013KT 10SM CLR 01/M04 A2976 RMK AO2 SLP085 T00061044

More Conditions Fewer Conditions

10-Day Weather Forecast

Almanac

Astronomy

Dec. 25, 2014 Rise Set
Actual Time
Civil Twilight
Nautical Twilight
Astronomical Twilight
Moon
Length of Visible Light
Length of Day
Tomorrow will be .
, % of the Moon is Illuminated

Today's Extremes

State Highs State Lows

Community

WunderPhotos

Upload Photos

1,780,250 photos uploaded!

WunderBlogs® & News

Nearby

Air Quality

  Air Quality AQ Index Pollutant
Not available.

Snow Depth

Station Depth Elevation

Earthquake Activity

City Distance Mag. Time & Date
Minimum magnitude displayed is 2.5.

Coastal Water Temperatures

Place Temperature

Nearby Weather Stations